Time;durP1;ratioP1;P1;durP2;ratioP2;P2;SDS_P1;SDS_P2;PMS_P1;PMS_P2;Temp;Humidity;BMP_temperature;BMP_pressure;BME280_temperature;BME280_humidity;BME280_pressure;Samples;Min_cycle;Max_cycle;Signal;HPM_P1;HPM_P2
2022/04/29 00:00:51;;;;;;;5.67;4.17;;;;;;;11.08;100.00;97056.13;5056561;28;20214;-83
2022/04/29 00:03:19;;;;;;;5.90;3.93;;;;;;;11.09;100.00;97047.00;5050381;28;20267;-83
2022/04/29 00:05:47;;;;;;;5.60;3.80;;;;;;;11.03;100.00;97045.16;5058218;28;20272;-84
2022/04/29 00:08:15;;;;;;;8.83;3.90;;;;;;;11.05;100.00;97053.06;5052758;28;20214;-83
2022/04/29 00:10:43;;;;;;;5.00;3.90;;;;;;;11.05;100.00;97048.47;5055317;28;20213;-83
2022/04/29 00:13:14;;;;;;;4.43;3.57;;;;;;;11.03;100.00;97058.69;5058536;28;20216;-83
2022/04/29 00:15:42;;;;;;;7.47;3.77;;;;;;;10.95;100.00;97057.06;5052594;28;20366;-84
2022/04/29 00:18:10;;;;;;;4.00;3.57;;;;;;;10.91;100.00;97055.81;5061194;28;20218;-83
2022/04/29 00:20:38;;;;;;;4.70;3.50;;;;;;;10.94;100.00;97057.25;5055383;28;20214;-83
2022/04/29 00:23:05;;;;;;;4.87;3.93;;;;;;;10.77;100.00;97042.59;5051550;28;20205;-83
2022/04/29 00:25:32;;;;;;;5.37;4.37;;;;;;;10.71;100.00;97051.56;5061162;28;20221;-83
2022/04/29 00:28:00;;;;;;;3.90;3.33;;;;;;;10.61;100.00;97035.78;5059087;28;20193;-83
2022/04/29 00:30:28;;;;;;;3.00;2.70;;;;;;;10.58;100.00;97036.22;5057568;28;20202;-83
2022/04/29 00:32:55;;;;;;;3.53;2.97;;;;;;;10.46;100.00;97025.22;5056997;28;20201;-83
2022/04/29 00:35:23;;;;;;;4.03;3.13;;;;;;;10.42;100.00;97028.59;5052691;28;20214;-83
2022/04/29 00:37:52;;;;;;;4.67;3.10;;;;;;;10.30;100.00;97016.78;5053218;28;20234;-83
2022/04/29 00:40:21;;;;;;;5.60;2.83;;;;;;;10.26;100.00;97012.84;5060686;28;20197;-84
2022/04/29 00:42:48;;;;;;;3.87;3.07;;;;;;;10.22;100.00;97010.56;5061783;28;20202;-83
2022/04/29 00:45:18;;;;;;;4.50;3.03;;;;;;;10.27;100.00;97015.34;5069254;28;20218;-84
2022/04/29 00:47:48;;;;;;;5.23;3.30;;;;;;;10.24;100.00;97010.38;5057815;28;20214;-84
2022/04/29 00:50:20;;;;;;;3.80;3.40;;;;;;;10.23;100.00;97011.41;5054647;28;20264;-84
2022/04/29 00:52:49;;;;;;;5.87;3.40;;;;;;;10.26;100.00;97015.56;5057916;28;20213;-84
2022/04/29 00:55:17;;;;;;;5.63;3.20;;;;;;;10.25;100.00;97006.63;5056398;28;20206;-83
2022/04/29 00:57:51;;;;;;;3.97;3.40;;;;;;;10.37;100.00;97006.81;5057388;28;20206;-84
2022/04/29 01:00:19;;;;;;;3.60;3.30;;;;;;;10.42;100.00;97013.22;5085776;28;20227;-83
2022/04/29 01:02:50;;;;;;;5.13;3.30;;;;;;;10.43;100.00;97005.94;5058591;28;20209;-84
2022/04/29 01:05:20;;;;;;;3.60;3.30;;;;;;;10.35;100.00;97012.41;5052853;28;20202;-83
2022/04/29 01:07:48;;;;;;;6.40;3.70;;;;;;;10.22;100.00;97015.13;5053287;28;20210;-83
2022/04/29 01:10:20;;;;;;;4.03;3.20;;;;;;;10.23;100.00;97006.00;5056175;28;20206;-83
2022/04/29 01:12:51;;;;;;;4.53;3.50;;;;;;;10.23;100.00;97006.00;5057295;28;20198;-83
2022/04/29 01:15:19;;;;;;;3.90;3.00;;;;;;;10.20;100.00;97004.56;5053784;28;20233;-83
2022/04/29 01:17:50;;;;;;;3.53;3.03;;;;;;;10.23;100.00;97003.31;5066806;28;20269;-84
2022/04/29 01:20:27;;;;;;;3.50;3.10;;;;;;;10.22;100.00;97007.88;5064849;28;20210;-83
2022/04/29 01:22:57;;;;;;;3.23;2.80;;;;;;;10.16;100.00;96992.50;5071644;28;20548;-83
2022/04/29 01:25:25;;;;;;;4.70;2.93;;;;;;;10.12;100.00;96999.34;5056072;28;20204;-83
2022/04/29 01:27:55;;;;;;;5.30;3.07;;;;;;;10.00;100.00;96992.13;5067418;28;20208;-83
2022/04/29 01:30:24;;;;;;;4.10;2.67;;;;;;;10.00;100.00;96997.53;5050765;28;20320;-84
2022/04/29 01:32:53;;;;;;;3.10;2.80;;;;;;;10.05;100.00;96989.63;5058824;28;20202;-83
2022/04/29 01:35:20;;;;;;;3.13;2.50;;;;;;;10.08;100.00;96997.28;5057657;28;20206;-84
2022/04/29 01:37:47;;;;;;;3.80;2.50;;;;;;;10.09;100.00;96993.56;5059080;28;20260;-84
2022/04/29 01:40:16;;;;;;;8.80;4.10;;;;;;;10.08;100.00;97005.41;5060923;28;20206;-83
2022/04/29 01:42:43;;;;;;;5.37;4.03;;;;;;;9.94;100.00;97001.06;5056921;28;20247;-84
2022/04/29 01:45:12;;;;;;;4.87;3.63;;;;;;;9.86;100.00;97002.13;5057771;28;20205;-83
2022/04/29 01:48:01;;;;;;;6.20;3.73;;;;;;;9.80;100.00;97003.78;5053295;28;20297;-83
2022/04/29 01:50:47;;;;;;;4.53;4.13;;;;;;;9.38;100.00;97009.59;5054919;28;20213;-83
2022/04/29 01:53:14;;;;;;;6.70;4.27;;;;;;;9.34;100.00;97011.06;5052153;28;20392;-83
2022/04/29 01:55:43;;;;;;;5.80;3.80;;;;;;;9.26;100.00;97006.69;5062353;28;20201;-83
2022/04/29 01:58:10;;;;;;;5.83;4.17;;;;;;;9.33;100.00;97012.09;5050847;28;20283;-83
2022/04/29 02:00:38;;;;;;;4.70;4.20;;;;;;;9.22;100.00;97010.81;5050528;28;20206;-83
2022/04/29 02:03:06;;;;;;;4.53;3.77;;;;;;;9.24;100.00;97016.00;5058291;28;20220;-84
2022/04/29 02:05:33;;;;;;;5.77;3.53;;;;;;;9.18;100.00;97009.59;5056003;28;20213;-83
2022/04/29 02:08:01;;;;;;;5.33;3.67;;;;;;;9.13;100.00;97005.84;5051364;28;20212;-83
2022/04/29 02:10:29;;;;;;;6.20;3.57;;;;;;;9.10;100.00;97001.72;5059848;28;20201;-83
2022/04/29 02:12:58;;;;;;;5.70;3.50;;;;;;;9.16;100.00;97008.13;5058506;28;20194;-83
2022/04/29 02:15:31;;;;;;;4.57;3.63;;;;;;;9.12;100.00;96994.22;5048641;28;20302;-83
2022/04/29 02:18:05;;;;;;;5.10;3.20;;;;;;;9.24;100.00;96998.00;5056025;28;20295;-83
2022/04/29 02:20:33;;;;;;;3.40;2.90;;;;;;;9.24;100.00;96991.75;5054007;28;20208;-83
2022/04/29 02:23:01;;;;;;;3.80;3.00;;;;;;;9.27;100.00;96996.75;5058973;28;20198;-83
2022/04/29 02:25:28;;;;;;;4.00;3.57;;;;;;;9.31;100.00;97000.69;5056919;28;20263;-83
2022/04/29 02:27:55;;;;;;;3.40;2.83;;;;;;;9.35;100.00;96994.69;5065017;28;20194;-83
2022/04/29 02:30:23;;;;;;;3.53;3.10;;;;;;;9.32;100.00;96988.88;5056377;28;20208;-83
2022/04/29 02:32:50;;;;;;;4.50;3.10;;;;;;;9.27;100.00;96988.66;5059185;28;20439;-83
2022/04/29 02:35:18;;;;;;;3.40;3.07;;;;;;;9.21;100.00;96989.47;5057520;28;20213;-83
2022/04/29 02:37:45;;;;;;;3.77;3.00;;;;;;;9.26;100.00;96987.84;5055321;28;20252;-83
2022/04/29 02:40:12;;;;;;;4.47;2.80;;;;;;;9.30;100.00;96980.16;5057906;28;20230;-83
2022/04/29 02:42:41;;;;;;;3.80;2.50;;;;;;;9.30;100.00;96980.16;5050391;28;20270;-83
2022/04/29 02:45:10;;;;;;;3.07;2.70;;;;;;;9.27;100.00;96980.59;5052923;28;20202;-83
2022/04/29 02:47:46;;;;;;;4.40;3.10;;;;;;;9.22;100.00;96972.28;5067551;28;20277;-83
2022/04/29 02:50:13;;;;;;;4.83;3.33;;;;;;;9.20;100.00;96975.16;5065658;28;20224;-83
2022/04/29 02:52:49;;;;;;;4.07;2.97;;;;;;;9.21;100.00;96982.22;5059323;28;20216;-83
2022/04/29 02:55:16;;;;;;;3.07;2.77;;;;;;;9.17;100.00;96986.38;5048452;28;20241;-83
2022/04/29 02:58:01;;;;;;;3.00;2.70;;;;;;;9.21;100.00;96984.91;5062070;28;20251;-83
2022/04/29 03:00:29;;;;;;;4.93;2.90;;;;;;;9.15;100.00;96983.06;5057994;28;20658;-83
2022/04/29 03:02:58;;;;;;;3.10;2.80;;;;;;;9.15;100.00;96987.59;5051223;28;20206;-83
2022/04/29 03:05:26;;;;;;;3.73;2.93;;;;;;;9.07;100.00;96975.16;5054291;28;20198;-83
2022/04/29 03:07:53;;;;;;;3.60;3.00;;;;;;;9.09;100.00;96986.56;5049248;28;20198;-83
2022/04/29 03:10:20;;;;;;;4.23;2.70;;;;;;;9.03;100.00;96980.13;5050526;28;20202;-84
2022/04/29 03:12:48;;;;;;;3.30;2.97;;;;;;;8.92;100.00;96972.66;5052816;28;20264;-83
2022/04/29 03:15:20;;;;;;;3.50;3.17;;;;;;;8.96;100.00;96973.91;5057208;28;20231;-83
2022/04/29 03:20:40;;;;;;;3.83;2.73;;;;;;;8.97;100.00;96970.19;5053723;28;20233;-83
2022/04/29 03:23:09;;;;;;;2.70;2.50;;;;;;;9.00;100.00;96974.34;5051025;28;20267;-83
2022/04/29 03:25:41;;;;;;;5.33;3.50;;;;;;;8.92;100.00;96956.50;5071194;28;20201;-83
2022/04/29 03:28:08;;;;;;;3.73;3.40;;;;;;;8.88;100.00;96963.31;5051012;28;20240;-83
2022/04/29 03:30:37;;;;;;;4.47;3.37;;;;;;;8.84;100.00;96972.03;5049298;28;20252;-84
2022/04/29 03:33:06;;;;;;;3.97;2.80;;;;;;;8.78;100.00;96968.28;5057778;28;20206;-83
2022/04/29 03:35:44;;;;;;;3.33;2.43;;;;;;;8.67;100.00;96977.78;5052419;28;20213;-83
2022/04/29 03:38:24;;;;;;;2.97;2.67;;;;;;;8.60;100.00;96962.63;5050360;28;20569;-83
2022/04/29 03:40:52;;;;;;;3.53;2.50;;;;;;;8.60;100.00;96973.41;5057427;28;20205;-83
2022/04/29 03:43:23;;;;;;;5.27;2.87;;;;;;;8.51;100.00;96966.53;5066173;28;20197;-83
2022/04/29 03:45:52;;;;;;;5.10;3.20;;;;;;;8.41;100.00;96964.25;5061533;28;20296;-83
2022/04/29 03:49:35;;;;;;;4.00;3.27;;;;;;;8.31;100.00;96959.25;5051175;28;20206;-83
2022/04/29 03:51:40;;;;;;;5.37;3.60;;;;;;;8.31;100.00;96975.38;5052128;28;20261;-83
2022/04/29 03:54:08;;;;;;;3.73;3.33;;;;;;;8.26;100.00;96979.66;5067677;28;20617;-83
2022/04/29 03:56:40;;;;;;;4.80;3.77;;;;;;;8.20;100.00;96973.22;5057211;28;20285;-83
2022/04/29 03:59:08;;;;;;;4.20;3.80;;;;;;;8.12;100.00;96986.84;5052727;28;20230;-83
2022/04/29 04:01:37;;;;;;;4.27;3.53;;;;;;;8.13;100.00;96987.69;5059641;28;20267;-83
2022/04/29 04:04:07;;;;;;;3.87;3.13;;;;;;;8.11;100.00;96985.19;5060700;28;20201;-83
2022/04/29 04:06:52;;;;;;;4.53;3.30;;;;;;;8.11;100.00;96984.34;5065249;28;20215;-83
2022/04/29 04:09:33;;;;;;;4.93;3.50;;;;;;;8.08;100.00;96979.38;5057694;28;20198;-83
2022/04/29 04:12:06;;;;;;;4.63;3.63;;;;;;;8.09;100.00;96998.00;5057333;28;20197;-83
2022/04/29 04:15:04;;;;;;;4.20;3.80;;;;;;;8.11;100.00;96998.63;5047503;28;20210;-82
2022/04/29 04:17:38;;;;;;;5.10;3.70;;;;;;;8.10;100.00;96991.59;5055876;28;20206;-83
2022/04/29 04:20:07;;;;;;;4.60;3.40;;;;;;;8.01;100.00;96995.47;5057457;28;20214;-83
2022/04/29 04:22:46;;;;;;;4.53;3.73;;;;;;;7.93;100.00;96984.88;5060870;28;20250;-83
2022/04/29 04:25:15;;;;;;;3.83;3.30;;;;;;;7.83;100.00;96987.06;5052576;28;20217;-83
2022/04/29 04:27:43;;;;;;;4.90;3.70;;;;;;;7.65;100.00;96989.47;5057749;28;20206;-83
2022/04/29 04:30:11;;;;;;;5.30;4.10;;;;;;;7.57;100.00;96987.75;5061199;28;20228;-83
2022/04/29 04:32:40;;;;;;;7.00;4.00;;;;;;;7.49;100.00;96993.25;5059503;28;20209;-82
2022/04/29 04:35:08;;;;;;;5.33;4.10;;;;;;;7.50;100.00;96986.84;5055947;28;20241;-82
2022/04/29 04:37:36;;;;;;;5.77;3.47;;;;;;;7.57;100.00;96993.13;5058248;28;20349;-83
2022/04/29 04:40:06;;;;;;;4.63;3.50;;;;;;;7.66;100.00;96974.97;5054863;28;20226;-83
2022/04/29 04:42:45;;;;;;;6.23;3.90;;;;;;;7.75;100.00;96976.47;5057318;28;20413;-82
2022/04/29 04:45:14;;;;;;;3.57;2.90;;;;;;;7.81;100.00;96979.22;5060030;28;20236;-82
2022/04/29 04:47:56;;;;;;;4.83;3.57;;;;;;;7.81;100.00;96983.78;5057599;28;20206;-82
2022/04/29 04:50:46;;;;;;;3.97;3.10;;;;;;;7.74;100.00;96985.59;5035772;28;20202;-81
2022/04/29 04:53:14;;;;;;;5.57;3.73;;;;;;;7.74;100.00;96969.47;5050987;28;20220;-82
2022/04/29 04:55:42;;;;;;;3.80;3.10;;;;;;;7.75;100.00;96974.63;5068413;28;20200;-83
2022/04/29 04:58:11;;;;;;;3.10;2.80;;;;;;;7.77;100.00;96963.69;5064888;28;20210;-82
2022/04/29 05:00:39;;;;;;;3.83;3.07;;;;;;;7.80;100.00;96964.13;5056595;28;20233;-82
2022/04/29 05:03:44;;;;;;;3.20;2.90;;;;;;;7.97;100.00;96967.31;5055710;28;20292;-82
2022/04/29 05:06:31;;;;;;;4.30;3.27;;;;;;;8.06;100.00;96971.50;5050822;28;20205;-82
2022/04/29 05:08:58;;;;;;;6.23;3.03;;;;;;;8.10;100.00;96970.06;5060104;28;20212;-83
2022/04/29 05:11:26;;;;;;;3.67;3.10;;;;;;;8.01;100.00;96963.19;5052498;28;20213;-82
2022/04/29 05:13:59;;;;;;;3.50;3.10;;;;;;;7.99;100.00;96965.28;5058401;28;20199;-82
2022/04/29 05:16:28;;;;;;;3.90;2.70;;;;;;;8.02;100.00;96962.16;5057483;28;20230;-83
2022/04/29 05:19:31;;;;;;;6.63;2.53;;;;;;;8.19;100.00;96971.56;5038294;28;20230;-82
2022/04/29 05:21:58;;;;;;;5.20;2.70;;;;;;;8.25;100.00;96959.19;5047024;28;20206;-83
2022/04/29 05:24:26;;;;;;;4.50;2.87;;;;;;;8.38;100.00;96979.94;5055490;28;20291;-83
2022/04/29 05:27:19;;;;;;;3.10;2.80;;;;;;;8.46;100.00;96969.00;5053016;28;20293;-83
2022/04/29 05:30:08;;;;;;;3.20;2.50;;;;;;;8.57;100.00;96977.34;5055887;28;20217;-83
2022/04/29 05:32:54;;;;;;;3.00;2.30;;;;;;;8.67;100.00;96977.78;5056489;28;20270;-83
2022/04/29 05:35:40;;;;;;;2.90;2.37;;;;;;;8.77;100.00;96976.53;5049408;28;20209;-84
2022/04/29 05:43:55;;;;;;;3.67;2.40;;;;;;;8.99;100.00;96976.19;5012632;28;20213;-83
2022/04/29 05:46:24;;;;;;;2.10;1.90;;;;;;;9.04;100.00;96986.34;5052343;28;20302;-83
2022/04/29 05:48:51;;;;;;;4.07;2.00;;;;;;;9.04;100.00;96975.56;5058017;28;20233;-83
2022/04/29 05:51:18;;;;;;;3.60;2.23;;;;;;;9.11;100.00;96979.94;5049088;28;20240;-83
2022/04/29 05:53:45;;;;;;;2.13;1.93;;;;;;;9.13;100.00;96977.03;5051161;28;20207;-83
2022/04/29 05:56:13;;;;;;;4.20;2.57;;;;;;;9.16;100.00;96983.88;5057779;28;20325;-83
2022/04/29 05:58:40;;;;;;;6.43;2.27;;;;;;;9.20;100.00;96985.13;5072761;28;20228;-83
2022/04/29 06:01:27;;;;;;;5.40;2.13;;;;;;;9.21;100.00;96986.78;5052269;28;20244;-83
2022/04/29 06:03:54;;;;;;;6.40;2.33;;;;;;;9.12;100.00;96972.66;5058841;28;20205;-83
2022/04/29 06:06:21;;;;;;;4.50;2.47;;;;;;;9.21;100.00;96986.78;5055954;28;20198;-83
2022/04/29 06:08:48;;;;;;;4.40;2.80;;;;;;;9.20;100.00;96987.81;5052464;28;20198;-83
2022/04/29 06:11:16;;;;;;;6.13;2.90;;;;;;;9.25;100.00;96996.13;5053072;28;20209;-84
2022/04/29 06:13:43;;;;;;;3.83;2.73;;;;;;;9.25;100.00;96983.47;5054308;28;20220;-84
2022/04/29 06:16:30;;;;;;;6.70;2.83;;;;;;;9.31;100.00;96990.72;5062345;28;20237;-83
2022/04/29 06:19:16;;;;;;;4.43;2.77;;;;;;;9.28;100.00;96988.44;5056015;28;20282;-83
2022/04/29 06:22:09;;;;;;;8.67;3.00;;;;;;;9.25;100.00;96993.44;5037476;28;20214;-83
2022/04/29 06:24:43;;;;;;;7.07;3.20;;;;;;;9.27;100.00;96991.38;5054170;28;20227;-83
2022/04/29 06:27:12;;;;;;;3.90;2.90;;;;;;;9.19;100.00;96988.84;5048741;28;20268;-83
2022/04/29 06:29:39;;;;;;;5.93;2.90;;;;;;;9.15;100.00;96995.69;5055241;28;20233;-83
2022/04/29 06:32:08;;;;;;;5.10;2.63;;;;;;;9.11;100.00;96998.78;5058977;28;20210;-83
2022/04/29 06:34:54;;;;;;;3.87;2.80;;;;;;;9.17;100.00;97013.31;5048341;28;20213;-83
2022/04/29 06:37:22;;;;;;;4.37;2.90;;;;;;;9.11;100.00;97014.94;5062878;28;20229;-84
2022/04/29 06:39:54;;;;;;;3.60;2.77;;;;;;;9.09;100.00;97021.59;5059132;28;20229;-84
2022/04/29 06:42:44;;;;;;;7.67;3.60;;;;;;;9.11;100.00;97020.34;5063946;28;20213;-83
2022/04/29 06:45:30;;;;;;;12.20;3.90;;;;;;;9.15;100.00;97026.16;5049743;28;20221;-83
2022/04/29 06:48:17;;;;;;;16.83;3.90;;;;;;;9.18;100.00;97027.63;5054586;28;20221;-83
2022/04/29 06:51:03;;;;;;;19.27;5.40;;;;;;;9.27;100.00;97031.78;5058193;28;20293;-83
2022/04/29 06:53:48;;;;;;;12.90;4.60;;;;;;;9.43;100.00;97036.78;5047516;28;20279;-83
2022/04/29 06:56:21;;;;;;;9.10;4.80;;;;;;;9.46;100.00;97034.47;5050236;28;20287;-83
2022/04/29 06:58:49;;;;;;;7.83;3.80;;;;;;;9.41;100.00;97036.97;5060270;28;20216;-83
2022/04/29 07:01:16;;;;;;;6.40;3.23;;;;;;;9.37;100.00;97034.88;5061915;28;20221;-83
2022/04/29 07:03:45;;;;;;;5.90;3.00;;;;;;;9.36;100.00;97034.06;5063596;28;20255;-83
2022/04/29 07:06:13;;;;;;;5.20;3.23;;;;;;;9.40;100.00;97042.56;5057564;28;20198;-83
2022/04/29 07:08:41;;;;;;;4.77;2.70;;;;;;;9.35;100.00;97037.81;5058089;28;20292;-83
2022/04/29 07:11:27;;;;;;;4.87;2.70;;;;;;;9.35;100.00;97031.59;5057597;28;20217;-83
2022/04/29 07:13:59;;;;;;;4.03;3.00;;;;;;;9.39;100.00;97033.66;5057168;28;20214;-83
2022/04/29 07:16:30;;;;;;;7.03;3.17;;;;;;;9.42;100.00;97018.94;5064210;28;20222;-83
2022/04/29 07:19:09;;;;;;;3.40;2.63;;;;;;;9.41;100.00;97015.41;5059139;28;20214;-83
2022/04/29 07:21:37;;;;;;;4.07;3.43;;;;;;;9.36;100.00;97006.28;5062649;28;20257;-83
2022/04/29 07:24:05;;;;;;;4.77;3.23;;;;;;;9.41;100.00;97015.41;5055357;28;20201;-83
2022/04/29 07:26:39;;;;;;;4.60;3.03;;;;;;;9.41;100.00;97006.50;5062173;28;20196;-83
2022/04/29 07:29:07;;;;;;;4.07;2.57;;;;;;;9.63;100.00;97004.41;5056808;28;20208;-83
2022/04/29 07:31:40;;;;;;;2.67;2.20;;;;;;;10.04;100.00;97001.44;5047428;28;20247;-83
2022/04/29 07:44:53;;;;;;;3.07;2.23;;;;;;;12.08;95.72;96998.38;5027326;27;20298;-83
2022/04/29 07:47:36;;;;;;;3.23;2.10;;;;;;;12.26;90.23;96994.03;4998851;28;20222;-83
2022/04/29 07:51:53;;;;;;;3.53;1.97;;;;;;;12.33;89.32;96984.81;5104241;27;20556;-83
2022/04/29 07:54:23;;;;;;;2.80;2.37;;;;;;;12.49;88.14;96977.94;5078360;28;20208;-83
2022/04/29 07:56:50;;;;;;;2.17;1.97;;;;;;;12.55;88.38;96971.63;5070389;28;20268;-83
2022/04/29 07:59:20;;;;;;;3.10;2.20;;;;;;;12.55;84.42;96976.19;5058520;28;20198;-83
2022/04/29 08:01:47;;;;;;;2.33;2.00;;;;;;;12.55;85.59;96963.47;5055846;28;20214;-83
2022/04/29 08:04:16;;;;;;;2.33;2.13;;;;;;;12.72;83.16;96961.81;5062830;28;20209;-83
2022/04/29 08:06:44;;;;;;;2.30;2.10;;;;;;;12.89;79.19;96960.09;5054587;28;20212;-83
2022/04/29 08:09:13;;;;;;;2.67;2.00;;;;;;;13.25;77.09;96950.25;5063600;28;20228;-83
2022/04/29 08:11:40;;;;;;;2.20;1.70;;;;;;;13.38;74.35;96944.59;5043938;28;20237;-83
2022/04/29 08:14:27;;;;;;;2.07;1.80;;;;;;;13.54;72.55;96946.63;5056254;28;20255;-83
2022/04/29 08:17:25;;;;;;;2.17;1.83;;;;;;;13.90;71.34;96932.00;4961112;28;20221;-83
2022/04/29 08:19:53;;;;;;;3.47;2.40;;;;;;;14.19;71.51;96942.97;5026511;28;20214;-83
2022/04/29 08:22:23;;;;;;;1.80;1.70;;;;;;;14.32;63.19;96934.53;5034804;28;20233;-83
2022/04/29 08:24:53;;;;;;;2.27;1.80;;;;;;;14.37;65.42;96923.78;5037777;28;20580;-83
2022/04/29 08:27:21;;;;;;;2.80;2.00;;;;;;;14.84;65.26;96926.38;5059016;28;20202;-83
2022/04/29 08:29:49;;;;;;;2.10;1.70;;;;;;;15.24;64.39;96923.56;5052521;28;20222;-83
2022/04/29 08:32:16;;;;;;;2.10;1.90;;;;;;;15.51;61.17;96925.41;5057665;28;20237;-84
2022/04/29 08:34:45;;;;;;;3.10;2.40;;;;;;;15.76;60.76;96922.28;5034751;28;20277;-84
2022/04/29 08:37:12;;;;;;;5.37;2.20;;;;;;;15.74;56.60;96912.69;5045601;28;20206;-83
2022/04/29 08:39:43;;;;;;;3.70;1.90;;;;;;;15.71;53.72;96905.88;5036402;28;20206;-84
2022/04/29 08:42:14;;;;;;;3.50;2.40;;;;;;;16.04;53.67;96904.16;5031254;28;20195;-83
2022/04/29 08:44:42;;;;;;;7.00;2.80;;;;;;;16.33;55.07;96905.66;5043170;28;20226;-84
2022/04/29 08:47:29;;;;;;;6.70;2.70;;;;;;;16.58;54.05;96905.16;5039667;28;20213;-84
2022/04/29 08:50:08;;;;;;;3.83;2.20;;;;;;;16.63;54.95;96895.16;5038952;28;20367;-84
2022/04/29 08:52:35;;;;;;;2.63;2.40;;;;;;;16.66;55.73;96891.09;5037405;28;20222;-84
2022/04/29 09:00:38;;;;;;;2.37;2.00;;;;;;;17.29;52.04;96900.44;5033106;28;20218;-84
2022/04/29 09:03:14;;;;;;;2.40;2.20;;;;;;;17.32;52.95;96898.03;5033130;28;20203;-84
2022/04/29 09:05:42;;;;;;;5.57;2.93;;;;;;;17.18;52.48;96899.53;5035530;28;20218;-84
2022/04/29 09:08:13;;;;;;;3.53;2.70;;;;;;;17.15;54.38;96894.59;5030156;28;20204;-84
2022/04/29 09:10:50;;;;;;;4.57;3.10;;;;;;;17.36;56.48;96890.97;5027275;28;20230;-84
2022/04/29 09:13:22;;;;;;;3.73;2.60;;;;;;;17.45;57.02;96887.75;5032692;28;20207;-84
2022/04/29 09:15:51;;;;;;;4.93;2.87;;;;;;;17.43;57.82;96874.38;5038679;28;20228;-83
2022/04/29 09:18:37;;;;;;;2.77;2.53;;;;;;;17.52;58.15;96882.91;5040989;28;20213;-83
2022/04/29 09:21:07;;;;;;;4.10;3.03;;;;;;;17.37;58.07;96884.41;5033998;28;20216;-84
2022/04/29 09:23:36;;;;;;;5.37;4.13;;;;;;;17.70;58.58;96882.50;5026763;28;20266;-84
2022/04/29 09:26:26;;;;;;;4.13;3.00;;;;;;;17.85;60.74;96881.81;5002102;28;20211;-84
2022/04/29 09:29:15;;;;;;;5.30;3.00;;;;;;;17.83;60.65;96887.53;5021075;28;20287;-83
2022/04/29 09:31:53;;;;;;;3.47;2.70;;;;;;;17.70;58.73;96885.25;5015052;28;20223;-81
2022/04/29 09:34:45;;;;;;;3.87;2.70;;;;;;;17.72;57.82;96888.53;5028029;28;20210;-81
2022/04/29 09:37:17;;;;;;;5.60;2.70;;;;;;;17.72;59.78;96880.34;5035725;28;20202;-81
2022/04/29 09:39:54;;;;;;;3.33;2.80;;;;;;;17.74;56.34;96876.28;5018918;28;20203;-81
2022/04/29 09:42:21;;;;;;;2.93;2.70;;;;;;;17.76;57.49;96885.03;5041881;28;20222;-81
2022/04/29 09:44:50;;;;;;;2.80;2.20;;;;;;;17.57;56.70;96878.31;5016902;28;20207;-82
2022/04/29 09:47:20;;;;;;;3.57;2.83;;;;;;;17.53;55.86;96877.16;5037967;28;20214;-81
2022/04/29 09:49:54;;;;;;;3.10;2.50;;;;;;;17.42;55.61;96880.09;5042841;28;20244;-81
2022/04/29 09:52:22;;;;;;;4.13;2.43;;;;;;;17.28;56.42;96877.78;5051925;28;20214;-81
2022/04/29 09:54:49;;;;;;;4.00;2.30;;;;;;;17.33;55.73;96882.50;5019771;28;20202;-81
2022/04/29 09:57:17;;;;;;;3.60;2.43;;;;;;;17.29;54.40;96879.44;5020967;28;20231;-81
2022/04/29 09:59:46;;;;;;;2.40;2.13;;;;;;;17.29;53.83;96873.97;5018583;28;20195;-81
2022/04/29 10:02:16;;;;;;;6.63;2.30;;;;;;;17.48;53.26;96879.88;5017676;28;20211;-82
2022/04/29 10:04:49;;;;;;;5.87;2.90;;;;;;;17.62;53.12;96877.53;5031137;28;20207;-81
2022/04/29 10:07:17;;;;;;;3.40;3.03;;;;;;;17.77;54.75;96861.28;5019457;28;20215;-82
2022/04/29 10:09:47;;;;;;;2.97;2.63;;;;;;;18.02;52.44;96863.34;5035436;28;20202;-82
2022/04/29 10:12:16;;;;;;;4.97;2.30;;;;;;;18.25;51.02;96864.81;5023136;28;20222;-81
2022/04/29 10:14:52;;;;;;;2.90;2.60;;;;;;;18.25;51.40;96871.09;5019288;28;20198;-81
2022/04/29 10:23:13;;;;;;;4.20;2.80;;;;;;;19.01;49.99;96865.09;5022380;28;20225;-81
2022/04/29 10:25:42;;;;;;;3.40;2.60;;;;;;;19.02;48.87;96855.78;5031551;28;20270;-82
2022/04/29 10:28:11;;;;;;;3.63;2.63;;;;;;;19.18;48.24;96863.75;5024670;28;20237;-82
2022/04/29 10:30:40;;;;;;;3.15;2.85;;;;;;;19.18;48.61;96851.97;5039925;28;20246;-81
2022/04/29 10:33:11;;;;;;;6.23;3.27;;;;;;;19.40;48.54;96855.25;5011309;28;20203;-81
2022/04/29 10:35:53;;;;;;;3.53;2.80;;;;;;;19.29;52.41;96850.91;5012985;28;20401;-82
2022/04/29 10:38:25;;;;;;;7.03;3.40;;;;;;;19.55;53.21;96852.56;5022504;28;20210;-82
2022/04/29 10:41:10;;;;;;;3.20;2.92;;;;;;;19.89;51.95;96843.75;5020560;28;20211;-82
2022/04/29 10:43:38;;;;;;;3.75;3.03;;;;;;;19.95;51.37;96845.38;5035568;28;20253;-81
2022/04/29 10:46:21;;;;;;;4.18;3.17;;;;;;;20.10;51.04;96839.03;5041753;28;20206;-81
2022/04/29 10:49:24;;;;;;;3.78;3.10;;;;;;;20.09;50.75;96840.94;5021440;28;20297;-82
2022/04/29 10:52:25;;;;;;;3.35;2.97;;;;;;;20.46;49.32;96842.50;5016287;28;20343;-82
2022/04/29 10:55:23;;;;;;;3.85;3.03;;;;;;;20.50;48.91;96829.88;5019345;28;20309;-82
2022/04/29 10:57:58;;;;;;;3.65;2.80;;;;;;;20.43;49.41;96832.06;5032958;28;20214;-82
2022/04/29 11:00:29;;;;;;;4.53;3.60;;;;;;;20.56;50.64;96820.50;5017007;28;20295;-82
2022/04/29 11:03:32;;;;;;;3.35;3.05;;;;;;;20.30;49.67;96823.31;5010691;28;20210;-82
2022/04/29 11:06:09;;;;;;;4.07;2.97;;;;;;;20.26;49.12;96816.75;5018026;28;20218;-82
2022/04/29 11:08:37;;;;;;;3.38;2.95;;;;;;;20.38;49.27;96806.31;5030851;28;20211;-82
2022/04/29 11:11:04;;;;;;;3.45;3.15;;;;;;;20.52;49.12;96802.94;5025693;28;20217;-82
2022/04/29 11:14:00;;;;;;;2.83;2.63;;;;;;;20.62;49.72;96806.47;5019586;28;20211;-82
2022/04/29 11:16:52;;;;;;;3.97;3.17;;;;;;;20.53;49.03;96799.09;5014446;28;20234;-82
2022/04/29 11:19:45;;;;;;;4.38;3.20;;;;;;;20.39;49.72;96794.25;5019728;28;20218;-82
2022/04/29 11:25:04;;;;;;;4.05;3.45;;;;;;;20.19;51.46;96791.56;5030260;28;20238;-82
2022/04/29 11:27:41;;;;;;;11.55;7.20;;;;;;;20.45;50.47;96784.06;5034810;28;20207;-82
2022/04/29 11:30:14;;;;;;;7.45;3.58;;;;;;;20.56;48.69;96779.34;5025639;28;20293;-82
2022/04/29 11:33:04;;;;;;;3.63;3.00;;;;;;;20.58;49.47;96774.41;5034483;28;20228;-82
2022/04/29 11:35:31;;;;;;;5.63;3.05;;;;;;;20.67;49.57;96761.72;5034469;28;20257;-82
2022/04/29 11:37:59;;;;;;;3.97;3.03;;;;;;;20.80;49.54;96766.56;5021315;28;20207;-82
2022/04/29 11:40:27;;;;;;;3.20;2.78;;;;;;;20.67;49.35;96764.47;5027941;28;20217;-82
2022/04/29 11:42:54;;;;;;;3.80;3.03;;;;;;;20.74;48.67;96756.72;5024664;28;20302;-81
2022/04/29 11:45:23;;;;;;;4.10;3.50;;;;;;;20.97;48.55;96753.25;5029902;28;20211;-82
2022/04/29 11:47:50;;;;;;;4.43;2.88;;;;;;;20.97;48.33;96747.78;5019956;28;20203;-82
2022/04/29 11:50:30;;;;;;;5.32;3.85;;;;;;;21.08;48.71;96743.84;5022016;28;20257;-82
2022/04/29 11:53:06;;;;;;;3.92;3.53;;;;;;;21.22;48.50;96743.19;5021552;28;20253;-82
2022/04/29 11:55:33;;;;;;;4.90;3.08;;;;;;;21.35;48.19;96742.53;5039216;28;20202;-81
2022/04/29 11:58:00;;;;;;;3.63;2.83;;;;;;;21.17;48.90;96732.25;5035037;28;20298;-82
2022/04/29 12:00:29;;;;;;;3.58;2.90;;;;;;;21.14;48.50;96730.88;5034626;28;20242;-81
2022/04/29 12:02:57;;;;;;;2.97;2.75;;;;;;;21.33;48.76;96740.06;5034398;28;20210;-80
2022/04/29 12:05:27;;;;;;;4.15;3.10;;;;;;;21.53;46.48;96739.84;5041805;28;20235;-81
2022/04/29 12:07:54;;;;;;;3.85;3.45;;;;;;;21.60;46.66;96730.47;5036845;28;20256;-83
2022/04/29 12:10:38;;;;;;;3.83;3.30;;;;;;;21.63;46.62;96721.63;5029832;28;20217;-84
2022/04/29 12:13:07;;;;;;;4.00;3.45;;;;;;;21.70;48.17;96720.16;5023421;28;20202;-84
2022/04/29 12:15:38;;;;;;;3.80;3.10;;;;;;;21.43;46.33;96722.69;5017353;28;20242;-84
2022/04/29 12:18:08;;;;;;;5.50;3.67;;;;;;;21.45;46.73;96718.50;5038709;28;20289;-84
2022/04/29 12:20:35;;;;;;;3.88;2.83;;;;;;;21.54;46.80;96713.19;5041981;28;20214;-84
2022/04/29 12:23:10;;;;;;;6.97;3.22;;;;;;;21.72;47.71;96712.47;5015954;28;20212;-83
2022/04/29 12:25:42;;;;;;;3.40;3.10;;;;;;;21.50;47.02;96720.41;5027298;28;20218;-83
2022/04/29 12:28:12;;;;;;;4.35;3.20;;;;;;;21.49;46.55;96713.28;5038032;28;20210;-83
2022/04/29 12:36:11;;;;;;;6.50;3.65;;;;;;;21.69;48.56;96693.78;5025619;28;20216;-82
2022/04/29 12:38:40;;;;;;;3.47;3.05;;;;;;;21.69;48.77;96699.28;5029876;28;20216;-82